createdAt,value
2022-07-30T00:04:32.610Z,60.74
2022-07-30T00:09:36.394Z,61.48
2022-07-30T00:14:39.873Z,60.85
2022-07-30T00:19:43.284Z,61.22
2022-07-30T00:24:48.644Z,61.41
2022-07-30T00:29:51.956Z,61.17
2022-07-30T00:34:55.265Z,61.38
2022-07-30T00:39:58.679Z,61.30
2022-07-30T00:45:02.098Z,61.72
2022-07-30T00:50:08.445Z,61.47
2022-07-30T00:55:15.023Z,61.57
2022-07-30T01:00:19.192Z,62.05
2022-07-30T01:05:22.605Z,62.32
2022-07-30T01:10:25.916Z,62.29
2022-07-30T01:15:30.103Z,62.69
2022-07-30T01:20:44.517Z,62.62
2022-07-30T01:25:50.492Z,62.83
2022-07-30T01:30:56.260Z,62.93
2022-07-30T01:36:01.641Z,62.97
2022-07-30T01:41:08.164Z,63.05
2022-07-30T01:46:14.185Z,63.00
2022-07-30T01:51:18.695Z,63.29
2022-07-30T01:56:25.274Z,63.45
2022-07-30T02:01:28.974Z,63.35
2022-07-30T02:06:38.789Z,63.55
2022-07-30T02:12:04.219Z,64.21
2022-07-30T02:17:18.660Z,64.40
2022-07-30T02:22:25.894Z,64.76
2022-07-30T02:27:32.634Z,65.06
2022-07-30T02:32:39.214Z,65.04
2022-07-30T02:37:44.441Z,65.43
2022-07-30T02:42:51.825Z,65.73
2022-07-30T02:48:03.117Z,65.66
2022-07-30T02:53:11.769Z,65.77
2022-07-30T02:58:22.553Z,66.00
2022-07-30T03:03:29.617Z,66.44
2022-07-30T03:08:34.706Z,66.62
2022-07-30T03:13:38.529Z,66.36
2022-07-30T03:18:44.457Z,66.38
2022-07-30T03:23:49.915Z,66.46
2022-07-30T03:28:54.090Z,67.12
2022-07-30T03:33:57.605Z,66.98
2022-07-30T03:39:01.839Z,67.32
2022-07-30T03:44:06.483Z,67.24
2022-07-30T03:49:11.956Z,67.13
2022-07-30T03:54:16.686Z,67.13
2022-07-30T03:59:20.101Z,67.21
2022-07-30T04:04:23.513Z,67.82
2022-07-30T04:09:26.823Z,68.11
2022-07-30T04:14:44.796Z,68.31
2022-07-30T04:20:02.015Z,68.71
2022-07-30T04:25:07.202Z,68.35
2022-07-30T04:30:11.236Z,68.39
2022-07-30T04:35:23.965Z,68.02
2022-07-30T04:40:37.890Z,68.18
2022-07-30T04:45:42.120Z,67.92
2022-07-30T04:50:47.377Z,67.85
2022-07-30T04:55:52.975Z,67.91
2022-07-30T05:01:00.283Z,67.72
2022-07-30T05:06:05.580Z,67.79
2022-07-30T05:11:13.422Z,67.64
2022-07-30T05:16:17.222Z,67.40
2022-07-30T05:21:20.657Z,67.31
2022-07-30T05:26:27.483Z,67.01
2022-07-30T05:31:32.815Z,66.96
2022-07-30T05:36:36.938Z,66.63
2022-07-30T05:41:40.350Z,66.51
2022-07-30T05:46:43.710Z,66.36
2022-07-30T05:51:47.491Z,66.10
2022-07-30T05:56:53.766Z,65.58
2022-07-30T06:01:57.227Z,65.13
2022-07-30T06:07:00.893Z,64.54
2022-07-30T06:12:06.515Z,64.29
2022-07-30T06:17:09.773Z,64.25
2022-07-30T06:22:13.085Z,63.83
2022-07-30T06:27:16.497Z,63.39
2022-07-30T06:32:19.910Z,63.00
2022-07-30T06:37:23.630Z,62.67
2022-07-30T06:42:47.023Z,61.93
2022-07-30T06:47:50.528Z,60.55
2022-07-30T06:52:55.067Z,60.44
2022-07-30T06:57:58.377Z,60.36
2022-07-30T07:03:01.744Z,60.12
2022-07-30T07:08:05.402Z,59.63
2022-07-30T07:13:08.824Z,58.59
2022-07-30T07:18:13.262Z,57.50
2022-07-30T07:23:16.564Z,58.01
2022-07-30T07:28:23.294Z,56.18
2022-07-30T07:33:37.020Z,55.70
2022-07-30T07:38:40.341Z,54.39
2022-07-30T07:43:43.741Z,54.26
2022-07-30T07:48:47.306Z,54.08
2022-07-30T07:54:11.728Z,53.84
2022-07-30T07:59:14.065Z,53.07
2022-07-30T08:04:20.366Z,52.16
2022-07-30T08:09:23.452Z,52.03
2022-07-30T08:14:26.670Z,50.01
2022-07-30T08:19:30.183Z,50.11
2022-07-30T08:24:34.419Z,49.91
2022-07-30T08:29:37.887Z,48.48
2022-07-30T08:34:41.240Z,46.67
2022-07-30T08:39:45.146Z,47.41
2022-07-30T08:44:48.407Z,46.68
2022-07-30T08:49:51.754Z,45.91
2022-07-30T08:54:56.447Z,45.84
2022-07-30T09:00:01.715Z,46.24
2022-07-30T09:05:06.549Z,46.09
2022-07-30T09:10:11.003Z,45.67
2022-07-30T09:15:16.827Z,44.23
2022-07-30T09:20:22.283Z,44.60
2022-07-30T09:25:34.525Z,44.43
2022-07-30T09:30:48.764Z,43.79
2022-07-30T09:35:56.956Z,42.69
2022-07-30T09:41:04.836Z,42.89
2022-07-30T09:46:16.562Z,41.40
2022-07-30T09:51:23.997Z,40.83
2022-07-30T09:56:53.982Z,41.43
2022-07-30T10:02:01.065Z,40.74
2022-07-30T10:07:25.357Z,40.71
2022-07-30T10:12:30.829Z,40.14
2022-07-30T10:17:34.566Z,40.07
2022-07-30T10:22:39.154Z,39.37
2022-07-30T10:27:42.587Z,39.41
2022-07-30T10:32:46.472Z,38.94
2022-07-30T10:37:58.174Z,37.89
2022-07-30T10:43:36.001Z,36.96
2022-07-30T10:48:39.572Z,36.10
2022-07-30T10:53:46.198Z,36.77
2022-07-30T10:59:15.694Z,36.27
2022-07-30T11:04:25.711Z,35.20
2022-07-30T11:09:37.423Z,35.17
2022-07-30T11:15:06.631Z,34.80
2022-07-30T11:20:21.923Z,35.07
2022-07-30T11:25:50.222Z,35.09
2022-07-30T11:30:55.678Z,35.01
2022-07-30T11:36:10.720Z,34.22
2022-07-30T11:41:15.147Z,34.18
2022-07-30T11:46:28.922Z,33.63
2022-07-30T11:51:44.227Z,34.02
2022-07-30T11:56:51.914Z,34.25
2022-07-30T12:02:02.308Z,33.50
2022-07-30T12:07:06.212Z,33.44
2022-07-30T12:12:25.499Z,33.04
2022-07-30T12:17:45.920Z,33.40
2022-07-30T12:22:49.425Z,34.15
2022-07-30T12:27:54.167Z,34.22
2022-07-30T12:32:57.479Z,33.85
2022-07-30T12:38:05.295Z,34.35
2022-07-30T12:43:13.741Z,34.23
2022-07-30T12:48:17.445Z,34.59
2022-07-30T12:53:29.874Z,34.73
2022-07-30T12:58:38.484Z,35.19
2022-07-30T13:03:42.124Z,35.55
2022-07-30T13:08:58.544Z,35.80
2022-07-30T13:14:01.855Z,36.04
2022-07-30T13:19:07.189Z,36.28
2022-07-30T13:24:11.445Z,36.31
2022-07-30T13:29:21.618Z,36.08
2022-07-30T13:34:25.750Z,35.75
2022-07-30T13:39:29.366Z,35.86
2022-07-30T13:44:32.678Z,36.20
2022-07-30T13:49:37.831Z,36.44
2022-07-30T13:54:41.141Z,35.75
2022-07-30T13:59:44.664Z,35.92
2022-07-30T14:04:47.974Z,35.97
2022-07-30T14:09:54.359Z,35.87
2022-07-30T14:14:58.274Z,36.23
2022-07-30T14:20:02.112Z,36.81
2022-07-30T14:25:06.025Z,37.06
2022-07-30T14:30:10.563Z,37.35
2022-07-30T14:35:13.877Z,37.84
2022-07-30T14:40:17.184Z,38.14
2022-07-30T14:45:20.495Z,38.26
2022-07-30T14:50:23.907Z,38.54
2022-07-30T14:55:27.423Z,38.82
2022-07-30T15:00:35.548Z,38.91
2022-07-30T15:05:52.540Z,39.03
2022-07-30T15:10:57.982Z,39.14
2022-07-30T15:16:06.469Z,39.49
2022-07-30T15:21:09.887Z,39.45
2022-07-30T15:26:13.198Z,39.69
2022-07-30T15:31:16.386Z,39.85
2022-07-30T15:36:19.616Z,39.90
2022-07-30T15:41:22.907Z,40.27
2022-07-30T15:46:26.133Z,40.52
2022-07-30T15:51:29.646Z,40.75
2022-07-30T15:56:33.982Z,40.83
2022-07-30T16:01:37.514Z,41.14
2022-07-30T16:06:42.907Z,41.24
2022-07-30T16:11:46.870Z,41.50
2022-07-30T16:16:50.296Z,41.74
2022-07-30T16:21:53.559Z,41.70
2022-07-30T16:26:56.611Z,42.02
2022-07-30T16:32:00.191Z,42.30
2022-07-30T16:37:04.096Z,42.57
2022-07-30T16:42:07.950Z,42.86
2022-07-30T16:47:13.878Z,43.06
2022-07-30T16:52:18.489Z,43.28
2022-07-30T16:57:21.698Z,43.29
2022-07-30T17:02:25.275Z,43.72
2022-07-30T17:07:29.105Z,43.95
2022-07-30T17:12:32.326Z,44.12
2022-07-30T17:17:35.540Z,44.20
2022-07-30T17:22:42.958Z,44.48
2022-07-30T17:27:46.332Z,44.50
2022-07-30T17:32:50.842Z,44.65
2022-07-30T17:37:54.035Z,44.83
2022-07-30T17:43:04.045Z,45.02
2022-07-30T17:48:08.838Z,45.15
2022-07-30T17:53:12.055Z,45.40
2022-07-30T17:58:15.354Z,45.82
2022-07-30T18:03:19.439Z,45.99
2022-07-30T18:08:23.981Z,46.38
2022-07-30T18:13:27.850Z,46.58
2022-07-30T18:18:31.266Z,46.69
2022-07-30T18:23:35.202Z,46.83
2022-07-30T18:28:38.599Z,47.23
2022-07-30T18:33:41.910Z,47.49
2022-07-30T18:38:51.158Z,47.69
2022-07-30T18:43:54.576Z,48.04
2022-07-30T18:48:59.230Z,48.00
2022-07-30T18:54:10.412Z,48.65
2022-07-30T18:59:13.723Z,49.05
2022-07-30T19:04:17.239Z,49.28
2022-07-30T19:09:20.549Z,49.86
2022-07-30T19:14:23.962Z,50.78
2022-07-30T19:19:27.477Z,51.26
2022-07-30T19:24:30.791Z,52.18
2022-07-30T19:29:34.201Z,53.02
2022-07-30T19:34:38.433Z,52.82
2022-07-30T19:40:05.173Z,53.53
2022-07-30T19:45:11.498Z,53.76
2022-07-30T19:50:15.194Z,54.06
2022-07-30T19:55:31.092Z,54.10
2022-07-30T20:00:39.225Z,54.39
2022-07-30T20:05:55.069Z,54.59
2022-07-30T20:11:34.821Z,55.20
2022-07-30T20:16:41.024Z,55.20
2022-07-30T20:21:56.742Z,55.38
2022-07-30T20:27:35.462Z,55.97
2022-07-30T20:32:26.081Z,56.39
2022-07-30T20:37:29.645Z,56.60
2022-07-30T20:42:33.369Z,56.67
2022-07-30T20:47:38.708Z,57.10
2022-07-30T20:52:46.696Z,57.28
2022-07-30T20:57:56.804Z,57.60
2022-07-30T21:03:06.472Z,57.94
2022-07-30T21:08:17.260Z,58.18
2022-07-30T21:13:21.247Z,58.40
2022-07-30T21:18:24.922Z,58.58
2022-07-30T21:23:29.853Z,58.65
2022-07-30T21:28:36.441Z,58.49
2022-07-30T21:33:39.755Z,59.30
2022-07-30T21:38:43.269Z,59.33
2022-07-30T21:43:49.283Z,59.50
2022-07-30T21:48:58.306Z,59.70
2022-07-30T21:54:07.193Z,59.91
2022-07-30T21:59:10.847Z,59.70
2022-07-30T22:04:16.438Z,59.71
2022-07-30T22:09:33.441Z,59.90
2022-07-30T22:14:39.525Z,60.16
2022-07-30T22:19:43.034Z,60.06
2022-07-30T22:24:47.471Z,60.32
2022-07-30T22:29:51.294Z,60.25
2022-07-30T22:34:59.315Z,60.60
2022-07-30T22:40:04.217Z,60.72
2022-07-30T22:45:10.338Z,60.70
2022-07-30T22:50:21.237Z,61.07
2022-07-30T22:55:29.872Z,60.77
2022-07-30T23:00:35.018Z,61.53
2022-07-30T23:05:40.022Z,61.24
2022-07-30T23:10:46.450Z,61.53
2022-07-30T23:15:49.862Z,61.86
2022-07-30T23:20:55.088Z,62.04
2022-07-30T23:26:05.598Z,62.42
2022-07-30T23:31:08.909Z,62.61
2022-07-30T23:36:12.321Z,63.07
2022-07-30T23:41:29.411Z,63.50
2022-07-30T23:46:33.482Z,64.14
2022-07-30T23:51:36.897Z,64.22
2022-07-30T23:56:40.618Z,64.89
